Terminal Aerodrome Forecast
Issued by NWS Shreveport, LA

Home | Current Version | Previous Version | Text Only | Print | Product List | Glossary On
Versions: 1 2 3 4 5 6 7 8 9 10 11 12 13 14 15 16 17 18 19 20 21 22 23
000
FTUS44 KSHV 251341 AAA
TAFLFK
TAF AMD
KLFK 251341Z 2514/2612 16009KT P6SM BKN005
     FM251500 17012KT P6SM BKN011 OVC020
     FM251800 17010G15KT P6SM VCTS BKN025CB BKN060 BKN100
     FM252100 18012G18KT 4SM TSRA BR BKN035CB OVC060
     FM260300 17009KT 5SM -SHRA VCTS OVC020CB=

USA.gov is the U.S. government's official web portal to all federal, state and local government web resources and services.